Time;durP1;ratioP1;P1;durP2;ratioP2;P2;SDS_P1;SDS_P2;PMS_P1;PMS_P2;Temp;Humidity;BMP_temperature;BMP_pressure;BME280_temperature;BME280_humidity;BME280_pressure;Samples;Min_cycle;Max_cycle;Signal;HPM_P1;HPM_P2
2021/09/19 00:01:55;;;;;;;;;;;;;;;22.12;81.33;101073.72;7285093;19;152715;-51
2021/09/19 00:04:23;;;;;;;;;;;;;;;22.11;81.13;101072.91;7291370;19;153331;-51
2021/09/19 00:06:50;;;;;;;;;;;;;;;22.10;81.20;101076.00;7283983;19;153563;-51
2021/09/19 00:09:17;;;;;;;;;;;;;;;22.13;81.72;101078.19;7281262;19;153815;-51
2021/09/19 00:11:44;;;;;;;;;;;;;;;22.11;81.45;101077.69;7285586;19;151722;-51
2021/09/19 00:14:12;;;;;;;;;;;;;;;22.13;81.69;101069.75;7282481;19;153532;-50
2021/09/19 00:16:40;;;;;;;;;;;;;;;22.12;81.83;101077.34;7282005;19;154329;-51
2021/09/19 00:19:07;;;;;;;;;;;;;;;22.10;81.45;101074.03;7283461;19;151809;-51
2021/09/19 00:21:35;;;;;;;;;;;;;;;22.12;81.42;101079.34;7283769;19;153754;-50
2021/09/19 00:24:03;;;;;;;;;;;;;;;22.13;81.87;101072.56;7283597;19;154645;-51
2021/09/19 00:26:30;;;;;;;;;;;;;;;22.12;81.65;101076.53;7292797;19;152295;-52
2021/09/19 00:28:57;;;;;;;;;;;;;;;22.12;81.96;101074.53;7282108;19;153490;-50
2021/09/19 00:31:24;;;;;;;;;;;;;;;22.12;82.33;101076.53;7284554;19;151507;-50
2021/09/19 00:33:51;;;;;;;;;;;;;;;22.13;81.79;101075.38;7282828;19;153615;-52
2021/09/19 00:36:18;;;;;;;;;;;;;;;22.14;81.77;101074.22;7280071;19;153382;-51
2021/09/19 00:38:45;;;;;;;;;;;;;;;22.15;82.41;101073.94;7284156;19;151920;-51
2021/09/19 00:41:12;;;;;;;;;;;;;;;22.13;82.15;101070.56;7281894;19;153148;-51
2021/09/19 00:43:39;;;;;;;;;;;;;;;22.14;82.26;101068.59;7281787;19;153835;-51
2021/09/19 00:46:06;;;;;;;;;;;;;;;22.14;82.47;101066.63;7282353;19;151886;-51
2021/09/19 00:48:34;;;;;;;;;;;;;;;22.16;82.47;101071.94;7289982;19;152969;-51
2021/09/19 00:51:03;;;;;;;;;;;;;;;22.16;82.50;101057.88;7282912;19;151744;-51
2021/09/19 00:53:32;;;;;;;;;;;;;;;22.14;82.50;101061.00;7280028;19;152826;-51
2021/09/19 00:56:03;;;;;;;;;;;;;;;22.17;82.75;101065.97;7279035;19;154936;-51
2021/09/19 00:58:32;;;;;;;;;;;;;;;22.17;82.69;101056.69;7284113;19;151880;-51
2021/09/19 01:01:00;;;;;;;;;;;;;;;22.21;82.73;101054.94;7283410;19;152194;-51
2021/09/19 01:03:27;;;;;;;;;;;;;;;22.21;82.99;101049.31;7281663;19;154043;-50
2021/09/19 01:05:55;;;;;;;;;;;;;;;22.19;82.84;101051.59;7280124;19;152459;-51
2021/09/19 01:08:22;;;;;;;;;;;;;;;22.20;82.73;101056.09;7282930;19;153426;-50
2021/09/19 01:10:50;;;;;;;;;;;;;;;22.21;82.86;101054.94;7287181;19;153433;-50
2021/09/19 01:13:18;;;;;;;;;;;;;;;22.19;82.88;101057.22;7280431;19;152839;-50
2021/09/19 01:15:45;;;;;;;;;;;;;;;22.20;82.90;101055.25;7282386;19;153554;-51
2021/09/19 01:18:14;;;;;;;;;;;;;;;22.21;83.11;101057.75;7281460;19;152051;-51
2021/09/19 01:20:41;;;;;;;;;;;;;;;22.22;83.24;101059.41;7281657;19;153791;-50
2021/09/19 01:23:11;;;;;;;;;;;;;;;22.21;82.98;101052.13;7279801;19;154459;-51
2021/09/19 01:25:39;;;;;;;;;;;;;;;22.22;82.94;101052.94;7281386;19;151879;-51
2021/09/19 01:28:06;;;;;;;;;;;;;;;22.24;82.96;101056.28;7282405;19;152751;-51
2021/09/19 01:30:34;;;;;;;;;;;;;;;22.22;83.49;101064.19;7284548;19;152774;-51
2021/09/19 01:33:03;;;;;;;;;;;;;;;22.24;83.29;101050.66;7281152;19;152902;-51
2021/09/19 01:35:30;;;;;;;;;;;;;;;22.24;83.08;101054.28;7276003;19;154142;-52
2021/09/19 01:37:58;;;;;;;;;;;;;;;22.26;83.47;101054.00;7279049;19;151885;-52
2021/09/19 01:40:26;;;;;;;;;;;;;;;22.27;83.15;101055.63;7280066;19;153470;-50
2021/09/19 01:42:53;;;;;;;;;;;;;;;22.28;83.61;101060.13;7279036;19;154181;-51
2021/09/19 01:45:21;;;;;;;;;;;;;;;22.28;83.42;101046.88;7279745;19;153742;-50
2021/09/19 01:47:49;;;;;;;;;;;;;;;22.28;83.34;101049.69;7279072;19;152561;-51
2021/09/19 01:50:16;;;;;;;;;;;;;;;22.29;83.39;101044.91;7277313;19;153993;-50
2021/09/19 01:52:43;;;;;;;;;;;;;;;22.29;83.12;101047.72;7290501;19;151766;-51
2021/09/19 01:55:10;;;;;;;;;;;;;;;22.30;83.66;101040.94;7276868;19;153475;-50
2021/09/19 01:57:37;;;;;;;;;;;;;;;22.30;83.64;101041.78;7277678;19;153586;-51
2021/09/19 02:00:06;;;;;;;;;;;;;;;22.30;83.21;101038.13;7281407;19;153767;-51
2021/09/19 02:02:34;;;;;;;;;;;;;;;22.30;83.83;101038.13;7280696;19;154193;-51
2021/09/19 02:05:04;;;;;;;;;;;;;;;22.32;83.69;101035.81;7279194;19;152212;-51
2021/09/19 02:07:32;;;;;;;;;;;;;;;22.31;83.83;101037.78;7281067;19;156006;-51
2021/09/19 02:10:00;;;;;;;;;;;;;;;22.31;83.78;101026.53;7277697;19;153620;-51
2021/09/19 02:12:27;;;;;;;;;;;;;;;22.32;83.82;101031.00;7280807;19;152707;-51
2021/09/19 02:14:54;;;;;;;;;;;;;;;22.33;83.69;101029.88;7288123;19;152945;-51
2021/09/19 02:17:21;;;;;;;;;;;;;;;22.33;84.13;101041.13;7280156;19;152161;-51
2021/09/19 02:19:48;;;;;;;;;;;;;;;22.33;83.90;101023.41;7281210;19;153797;-51
2021/09/19 02:22:16;;;;;;;;;;;;;;;22.33;83.76;101029.88;7277946;19;152678;-51
2021/09/19 02:24:43;;;;;;;;;;;;;;;22.35;83.80;101026.75;7281778;19;151785;-51
2021/09/19 02:27:10;;;;;;;;;;;;;;;22.35;83.96;101035.19;7272551;19;152899;-51
2021/09/19 02:29:37;;;;;;;;;;;;;;;22.33;83.99;101032.69;7277125;19;154150;-50
2021/09/19 02:32:05;;;;;;;;;;;;;;;22.35;84.03;101032.38;7281605;19;151865;-51
2021/09/19 02:34:32;;;;;;;;;;;;;;;22.35;84.11;101026.75;7277851;19;152852;-51
2021/09/19 02:37:00;;;;;;;;;;;;;;;22.33;84.18;101021.44;7283465;19;152972;-50
2021/09/19 02:39:27;;;;;;;;;;;;;;;22.33;83.75;101024.25;7278180;19;153438;-50
2021/09/19 02:41:54;;;;;;;;;;;;;;;22.32;83.88;101025.38;7278416;19;152813;-52
2021/09/19 02:44:21;;;;;;;;;;;;;;;22.35;84.06;101023.94;7276790;19;151941;-51
2021/09/19 02:46:48;;;;;;;;;;;;;;;22.34;83.87;101011.84;7281252;19;152411;-51
2021/09/19 02:49:16;;;;;;;;;;;;;;;22.36;83.87;101019.94;7284468;19;154103;-51
2021/09/19 02:51:44;;;;;;;;;;;;;;;22.36;84.11;101015.16;7288007;19;151970;-51
2021/09/19 02:54:11;;;;;;;;;;;;;;;22.36;83.60;101017.13;7285926;19;153748;-51
2021/09/19 02:56:38;;;;;;;;;;;;;;;22.37;84.16;101016.81;7279273;19;153799;-52
2021/09/19 02:59:05;;;;;;;;;;;;;;;22.36;84.37;101014.31;7294146;19;152111;-51
2021/09/19 03:01:32;;;;;;;;;;;;;;;22.38;84.40;101015.66;7285301;19;152516;-51
2021/09/19 03:04:00;;;;;;;;;;;;;;;22.37;84.36;101014.00;7286729;19;152095;-51
2021/09/19 03:06:27;;;;;;;;;;;;;;;22.38;83.85;101014.84;7282703;19;152887;-50
2021/09/19 03:08:54;;;;;;;;;;;;;;;22.37;84.09;101013.16;7284361;19;154194;-51
2021/09/19 03:11:21;;;;;;;;;;;;;;;22.37;84.01;101013.16;7281374;19;152225;-51
2021/09/19 03:13:48;;;;;;;;;;;;;;;22.37;84.13;101007.53;7286432;19;153524;-51
2021/09/19 03:16:15;;;;;;;;;;;;;;;22.36;84.25;101006.69;7283583;19;153541;-51
2021/09/19 03:18:42;;;;;;;;;;;;;;;22.36;83.72;101003.88;7285893;19;152271;-51
2021/09/19 03:21:09;;;;;;;;;;;;;;;22.35;83.89;100996.59;7291680;19;153932;-50
2021/09/19 03:23:37;;;;;;;;;;;;;;;22.38;84.24;101001.59;7286076;19;151791;-51
2021/09/19 03:26:04;;;;;;;;;;;;;;;22.35;84.02;101002.22;7285355;19;153450;-51
2021/09/19 03:28:32;;;;;;;;;;;;;;;22.36;83.96;101000.22;7285984;19;156318;-50
2021/09/19 03:30:59;;;;;;;;;;;;;;;22.36;84.34;101003.88;7282368;19;152224;-51
2021/09/19 03:33:26;;;;;;;;;;;;;;;22.34;83.90;101006.22;7282960;19;151746;-51
2021/09/19 03:35:53;;;;;;;;;;;;;;;22.34;84.30;101002.56;7284676;19;153458;-51
2021/09/19 03:38:20;;;;;;;;;;;;;;;22.33;84.22;101012.97;7285249;19;152649;-51
2021/09/19 03:40:47;;;;;;;;;;;;;;;22.34;84.07;101008.19;7292316;19;153010;-50
2021/09/19 03:43:14;;;;;;;;;;;;;;;22.34;84.05;101011.00;7285660;19;152149;-51
2021/09/19 03:45:42;;;;;;;;;;;;;;;22.34;83.91;101022.25;7285840;19;152731;-50
2021/09/19 03:48:09;;;;;;;;;;;;;;;22.34;84.29;101020.28;7283148;19;154001;-51
2021/09/19 03:50:36;;;;;;;;;;;;;;;22.33;83.84;101021.44;7281922;19;152337;-50
2021/09/19 03:53:04;;;;;;;;;;;;;;;22.33;84.01;101021.44;7286036;19;152230;-50
2021/09/19 03:55:31;;;;;;;;;;;;;;;22.34;83.97;101028.72;7283659;19;153938;-50
2021/09/19 03:57:59;;;;;;;;;;;;;;;22.34;84.02;101031.53;7281751;19;151886;-50
2021/09/19 04:00:26;;;;;;;;;;;;;;;22.32;83.84;101025.38;7283949;19;154581;-50
2021/09/19 04:02:53;;;;;;;;;;;;;;;22.34;83.88;101027.88;7289884;19;155397;-50
2021/09/19 04:05:20;;;;;;;;;;;;;;;22.33;83.89;101029.88;7285198;19;153283;-50
2021/09/19 04:07:47;;;;;;;;;;;;;;;22.33;84.15;101029.88;7284508;19;153573;-50
2021/09/19 04:10:14;;;;;;;;;;;;;;;22.32;83.79;101033.84;7284618;19;151883;-50
2021/09/19 04:12:42;;;;;;;;;;;;;;;22.33;84.16;101031.84;7281764;19;152510;-50
2021/09/19 04:15:09;;;;;;;;;;;;;;;22.32;84.12;101033.84;7284387;19;153531;-50
2021/09/19 04:17:36;;;;;;;;;;;;;;;22.32;84.03;101030.19;7284172;19;151707;-50
2021/09/19 04:20:05;;;;;;;;;;;;;;;22.33;84.28;101023.41;7284936;19;153396;-50
2021/09/19 04:22:32;;;;;;;;;;;;;;;22.33;83.90;101023.41;7282706;19;153694;-50
2021/09/19 04:25:00;;;;;;;;;;;;;;;22.33;84.36;101020.59;7290469;19;152050;-50
2021/09/19 04:27:27;;;;;;;;;;;;;;;22.34;84.53;101034.34;7283639;19;153147;-49
2021/09/19 04:29:54;;;;;;;;;;;;;;;22.34;84.22;101031.53;7282630;19;154117;-50
2021/09/19 04:32:22;;;;;;;;;;;;;;;22.35;84.70;101032.38;7283594;19;157951;-51
2021/09/19 04:34:50;;;;;;;;;;;;;;;22.36;84.12;101039.66;7281462;19;154048;-50
2021/09/19 04:37:17;;;;;;;;;;;;;;;22.35;84.41;101052.09;7283077;19;152947;-50
2021/09/19 04:39:45;;;;;;;;;;;;;;;22.35;84.09;101046.44;7281240;19;152250;-51
2021/09/19 04:42:13;;;;;;;;;;;;;;;22.35;84.30;101038.00;7281983;19;153475;-50
2021/09/19 04:44:41;;;;;;;;;;;;;;;22.34;84.34;101042.81;7282168;19;152148;-51
2021/09/19 04:47:08;;;;;;;;;;;;;;;22.35;84.54;101044.44;7287785;19;153553;-50
2021/09/19 04:49:36;;;;;;;;;;;;;;;22.36;84.41;101045.28;7283433;19;151946;-50
2021/09/19 04:52:03;;;;;;;;;;;;;;;22.34;84.60;101045.63;7280972;19;151919;-51
2021/09/19 04:54:30;;;;;;;;;;;;;;;22.34;84.48;101047.59;7279993;19;152850;-50
2021/09/19 04:56:58;;;;;;;;;;;;;;;22.34;84.29;101042.81;7279799;19;152419;-50
2021/09/19 04:59:25;;;;;;;;;;;;;;;22.33;84.68;101045.94;7277656;19;153435;-50
2021/09/19 05:01:55;;;;;;;;;;;;;;;22.34;84.45;101045.63;7280004;19;153736;-50
2021/09/19 05:04:23;;;;;;;;;;;;;;;22.34;84.82;101045.63;7281013;19;152538;-50
2021/09/19 05:06:50;;;;;;;;;;;;;;;22.35;84.71;101049.28;7285091;19;152867;-50
2021/09/19 05:09:17;;;;;;;;;;;;;;;22.33;84.60;101043.94;7288231;19;152368;-50
2021/09/19 05:11:44;;;;;;;;;;;;;;;22.35;84.58;101044.44;7281278;19;153630;-50
2021/09/19 05:14:12;;;;;;;;;;;;;;;22.33;84.66;101038.31;7279394;19;154133;-51
2021/09/19 05:16:39;;;;;;;;;;;;;;;22.36;84.67;101042.47;7284967;19;152310;-50
2021/09/19 05:19:06;;;;;;;;;;;;;;;22.37;84.86;101033.72;7283954;19;152895;-50
2021/09/19 05:21:33;;;;;;;;;;;;;;;22.35;84.69;101036.00;7280029;19;153504;-50
2021/09/19 05:24:01;;;;;;;;;;;;;;;22.35;84.50;101029.56;7282016;19;152056;-50
2021/09/19 05:26:28;;;;;;;;;;;;;;;22.36;84.66;101034.03;7281869;19;153997;-50
2021/09/19 05:28:55;;;;;;;;;;;;;;;22.37;85.14;101033.72;7282808;19;153507;-51
2021/09/19 05:31:22;;;;;;;;;;;;;;;22.36;85.04;101031.19;7285448;19;152492;-50
2021/09/19 05:33:49;;;;;;;;;;;;;;;22.35;84.61;101033.19;7279383;19;152136;-50
2021/09/19 05:36:16;;;;;;;;;;;;;;;22.35;84.90;101036.00;7283124;19;151866;-50
2021/09/19 05:38:44;;;;;;;;;;;;;;;22.35;84.97;101029.56;7279269;19;153719;-50
2021/09/19 05:41:11;;;;;;;;;;;;;;;22.35;85.18;101032.38;7281543;19;153513;-50
2021/09/19 05:43:38;;;;;;;;;;;;;;;22.35;85.06;101033.19;7282850;19;151804;-50
2021/09/19 05:46:05;;;;;;;;;;;;;;;22.35;84.86;101038.00;7281126;19;152889;-50
2021/09/19 05:48:32;;;;;;;;;;;;;;;22.35;84.86;101038.00;7280903;19;152750;-50
2021/09/19 05:50:59;;;;;;;;;;;;;;;22.34;85.10;101034.34;7286761;19;152047;-50
2021/09/19 05:53:26;;;;;;;;;;;;;;;22.34;85.00;101039.16;7282274;19;154140;-51
2021/09/19 05:55:53;;;;;;;;;;;;;;;22.32;85.01;101042.28;7280058;19;152100;-50
2021/09/19 05:58:20;;;;;;;;;;;;;;;22.33;85.13;101037.47;7277497;19;153322;-50
2021/09/19 06:00:47;;;;;;;;;;;;;;;22.33;85.00;101041.13;7277116;19;153458;-49
2021/09/19 06:03:14;;;;;;;;;;;;;;;22.34;85.25;101036.34;7281157;19;152052;-50
2021/09/19 06:05:41;;;;;;;;;;;;;;;22.32;84.98;101033.84;7281664;19;153408;-50
2021/09/19 06:08:09;;;;;;;;;;;;;;;22.33;85.01;101035.50;7277801;19;153348;-51
2021/09/19 06:10:36;;;;;;;;;;;;;;;22.33;84.85;101034.66;7278762;19;151780;-50
2021/09/19 06:13:03;;;;;;;;;;;;;;;22.34;85.13;101044.78;7286297;19;153550;-50
2021/09/19 06:15:30;;;;;;;;;;;;;;;22.33;85.22;101034.66;7280064;19;151735;-50
2021/09/19 06:17:58;;;;;;;;;;;;;;;22.33;85.22;101043.09;7278201;19;151904;-50
2021/09/19 06:20:25;;;;;;;;;;;;;;;22.33;85.25;101041.13;7277772;19;153336;-49
2021/09/19 06:22:52;;;;;;;;;;;;;;;22.33;85.29;101049.56;7283820;19;152162;-50
2021/09/19 06:25:19;;;;;;;;;;;;;;;22.34;85.08;101053.22;7284656;19;153927;-50
2021/09/19 06:27:46;;;;;;;;;;;;;;;22.36;85.52;101068.63;7286783;19;154134;-50
2021/09/19 06:30:13;;;;;;;;;;;;;;;22.35;85.48;101069.78;7286329;19;151600;-50
2021/09/19 06:32:41;;;;;;;;;;;;;;;22.37;85.28;101063.84;7284145;19;153692;-50
2021/09/19 06:35:09;;;;;;;;;;;;;;;22.36;85.68;101079.91;7294251;19;154039;-50
2021/09/19 06:37:36;;;;;;;;;;;;;;;22.38;85.49;101071.16;7284460;19;152838;-51
2021/09/19 06:40:03;;;;;;;;;;;;;;;22.34;85.11;101076.59;7286055;19;153492;-50
2021/09/19 06:42:30;;;;;;;;;;;;;;;22.35;85.17;101078.22;7285156;19;151828;-50
2021/09/19 06:44:58;;;;;;;;;;;;;;;22.37;85.70;101089.19;7286189;19;153956;-50
2021/09/19 06:47:25;;;;;;;;;;;;;;;22.36;85.49;101093.13;7285546;19;153490;-50
2021/09/19 06:49:53;;;;;;;;;;;;;;;22.36;85.44;101087.50;7286585;19;152099;-50
2021/09/19 06:52:20;;;;;;;;;;;;;;;22.35;85.12;101089.47;7286343;19;153253;-50
2021/09/19 06:54:48;;;;;;;;;;;;;;;22.36;85.54;101087.50;7285123;19;153698;-50
2021/09/19 06:57:15;;;;;;;;;;;;;;;22.34;85.09;101085.03;7289902;19;152187;-50
2021/09/19 06:59:44;;;;;;;;;;;;;;;22.36;85.17;101084.69;7279486;19;156280;-51
2021/09/19 07:02:11;;;;;;;;;;;;;;;22.34;85.31;101081.38;7284030;19;152905;-50
2021/09/19 07:04:39;;;;;;;;;;;;;;;22.35;85.46;101086.66;7287708;19;153561;-51
2021/09/19 07:07:07;;;;;;;;;;;;;;;22.35;85.79;101086.66;7284211;19;152315;-50
2021/09/19 07:09:35;;;;;;;;;;;;;;;22.36;85.77;101088.34;7286346;19;151911;-50
2021/09/19 07:12:04;;;;;;;;;;;;;;;22.36;85.54;101093.13;7283740;19;152255;-50
2021/09/19 07:14:31;;;;;;;;;;;;;;;22.36;85.34;101095.94;7283052;19;154292;-50
2021/09/19 07:16:58;;;;;;;;;;;;;;;22.37;85.26;101095.66;7285918;19;151587;-50
2021/09/19 07:19:25;;;;;;;;;;;;;;;22.36;85.40;101098.78;7291007;19;153462;-50
2021/09/19 07:21:52;;;;;;;;;;;;;;;22.33;85.46;101099.41;7283986;19;152414;-49
2021/09/19 07:24:20;;;;;;;;;;;;;;;22.38;85.21;101104.94;7286004;19;153317;-51
2021/09/19 07:26:47;;;;;;;;;;;;;;;22.36;85.06;101102.41;7286563;19;153983;-50
2021/09/19 07:29:14;;;;;;;;;;;;;;;22.35;85.23;101103.56;7284636;19;152581;-49
2021/09/19 07:31:42;;;;;;;;;;;;;;;22.35;85.55;101102.75;7284473;19;152855;-50
2021/09/19 07:34:09;;;;;;;;;;;;;;;22.34;85.27;101101.09;7282201;19;152648;-50
2021/09/19 07:36:36;;;;;;;;;;;;;;;22.36;85.16;101104.41;7284091;19;151670;-50
2021/09/19 07:39:04;;;;;;;;;;;;;;;22.38;85.49;101102.13;7285804;19;153508;-51
2021/09/19 07:41:31;;;;;;;;;;;;;;;22.37;85.34;101104.09;7290558;19;151972;-49
2021/09/19 07:43:59;;;;;;;;;;;;;;;22.36;85.62;101105.22;7285701;19;153424;-52
2021/09/19 07:46:26;;;;;;;;;;;;;;;22.36;85.25;101107.22;7284747;19;154142;-50
2021/09/19 07:48:54;;;;;;;;;;;;;;;22.36;85.11;101116.50;7281641;19;152008;-50
2021/09/19 07:51:23;;;;;;;;;;;;;;;22.36;85.19;101122.13;7282444;19;153460;-50
2021/09/19 07:53:51;;;;;;;;;;;;;;;22.37;85.25;101125.78;7281727;19;152458;-51
2021/09/19 07:56:20;;;;;;;;;;;;;;;22.36;85.47;101119.31;7283668;19;152271;-51
2021/09/19 07:58:53;;;;;;;;;;;;;;;22.36;85.22;101133.38;7281595;19;152748;-51
2021/09/19 08:01:24;;;;;;;;;;;;;;;22.35;85.44;101139.34;7285727;19;154319;-51
2021/09/19 08:03:51;;;;;;;;;;;;;;;22.35;85.06;101137.34;7286001;19;154747;-50
2021/09/19 08:06:22;;;;;;;;;;;;;;;22.34;85.57;101149.78;7283833;19;154154;-50
2021/09/19 08:09:03;;;;;;;;;;;;;;;22.37;85.51;101151.94;7283141;19;152134;-50
2021/09/19 08:11:32;;;;;;;;;;;;;;;22.36;85.40;101152.25;7284594;19;152854;-50
2021/09/19 08:16:30;;;;;;;;;;;;;;;22.38;85.17;101158.41;7285133;19;151800;-50
2021/09/19 08:18:58;;;;;;;;;;;;;;;22.42;85.51;101163.09;7283897;19;153969;-51
2021/09/19 08:21:25;;;;;;;;;;;;;;;22.42;85.56;101157.47;7283798;19;153405;-50
2021/09/19 08:23:52;;;;;;;;;;;;;;;22.41;85.93;101155.81;7293144;19;152075;-50
2021/09/19 08:26:19;;;;;;;;;;;;;;;22.42;85.75;101159.44;7282868;19;154053;-49
2021/09/19 08:28:51;;;;;;;;;;;;;;;22.42;85.92;101156.63;7284983;19;152002;-51
2021/09/19 08:31:31;;;;;;;;;;;;;;;22.42;85.67;101157.47;7282166;19;154717;-50
2021/09/19 08:33:59;;;;;;;;;;;;;;;22.41;85.78;101152.97;7282376;19;153916;-50
2021/09/19 08:36:30;;;;;;;;;;;;;;;22.42;85.77;101153.81;7282228;19;152457;-51
2021/09/19 08:38:59;;;;;;;;;;;;;;;22.44;85.30;101151.53;7283543;19;152814;-50
2021/09/19 08:41:27;;;;;;;;;;;;;;;22.43;85.39;101150.69;7282663;19;152439;-51
2021/09/19 08:43:55;;;;;;;;;;;;;;;22.43;85.83;101155.50;7284743;19;152061;-50
2021/09/19 08:46:23;;;;;;;;;;;;;;;22.46;85.95;101155.69;7289113;19;153685;-50
2021/09/19 08:48:51;;;;;;;;;;;;;;;22.37;84.20;101149.13;7282137;19;152749;-51
2021/09/19 08:51:21;;;;;;;;;;;;;;;22.27;83.62;101156.97;7281609;19;156619;-50
2021/09/19 08:53:48;;;;;;;;;;;;;;;22.28;83.35;101159.47;7279852;19;154175;-50
2021/09/19 08:56:18;;;;;;;;;;;;;;;22.26;82.43;101167.38;7279885;19;152141;-51
2021/09/19 08:58:56;;;;;;;;;;;;;;;22.17;81.98;101167.28;7281919;19;154824;-50
2021/09/19 09:01:56;;;;;;;;;;;;;;;22.11;82.31;101164.94;7278841;19;154004;-50
2021/09/19 09:04:40;;;;;;;;;;;;;;;22.12;82.97;101167.41;7278475;19;151800;-51
2021/09/19 09:07:07;;;;;;;;;;;;;;;22.12;82.83;101166.59;7282804;19;152638;-51
2021/09/19 09:09:35;;;;;;;;;;;;;;;22.13;82.80;101157.81;7288312;19;153455;-50
2021/09/19 09:12:04;;;;;;;;;;;;;;;22.13;82.78;101169.06;7282874;19;153626;-50
2021/09/19 09:14:37;;;;;;;;;;;;;;;22.14;83.23;101167.09;7282504;19;153369;-50
2021/09/19 09:17:10;;;;;;;;;;;;;;;22.15;83.22;101168.78;7284072;19;152093;-50
2021/09/19 09:19:38;;;;;;;;;;;;;;;22.17;83.46;101172.09;7279529;19;154071;-49
2021/09/19 09:22:05;;;;;;;;;;;;;;;22.24;83.39;101175.34;7280561;19;153062;-51
2021/09/19 09:24:33;;;;;;;;;;;;;;;22.25;83.17;101177.00;7281752;19;152386;-51
2021/09/19 09:27:07;;;;;;;;;;;;;;;22.18;82.76;101180.22;7282569;19;153093;-51
2021/09/19 09:29:35;;;;;;;;;;;;;;;22.20;82.43;101176.28;7281903;19;152273;-50
2021/09/19 09:32:02;;;;;;;;;;;;;;;22.22;83.02;101179.59;7289886;19;151643;-51
2021/09/19 09:34:29;;;;;;;;;;;;;;;22.20;82.70;101179.94;7282075;19;153469;-50
2021/09/19 09:36:59;;;;;;;;;;;;;;;22.21;82.88;101181.59;7281742;19;152149;-51
2021/09/19 09:39:31;;;;;;;;;;;;;;;22.20;83.15;101182.75;7281986;19;153851;-51
2021/09/19 09:42:05;;;;;;;;;;;;;;;22.20;83.04;101182.75;7278583;19;153604;-51
2021/09/19 09:44:34;;;;;;;;;;;;;;;22.25;83.21;101185.44;7282119;19;152819;-51
2021/09/19 09:47:07;;;;;;;;;;;;;;;22.22;83.18;101188.88;7281780;19;152460;-50
2021/09/19 09:49:40;;;;;;;;;;;;;;;22.25;83.31;101187.44;7280118;19;152691;-50
2021/09/19 09:52:12;;;;;;;;;;;;;;;22.23;83.00;101184.91;7288075;19;152756;-50
2021/09/19 09:54:42;;;;;;;;;;;;;;;22.26;83.26;101184.28;7280283;19;152329;-51
2021/09/19 09:57:15;;;;;;;;;;;;;;;22.26;83.09;101189.09;7277881;19;151608;-51
2021/09/19 09:59:45;;;;;;;;;;;;;;;22.25;83.33;101185.44;7287308;19;152524;-51
2021/09/19 10:02:12;;;;;;;;;;;;;;;22.27;83.27;101180.31;7283870;19;153376;-51
2021/09/19 10:04:41;;;;;;;;;;;;;;;22.27;82.80;101171.03;7282941;19;152558;-50
2021/09/19 10:07:11;;;;;;;;;;;;;;;22.27;82.16;101183.13;7287824;19;152129;-51
2021/09/19 10:09:53;;;;;;;;;;;;;;;22.26;81.67;101173.03;7284188;19;153999;-51
2021/09/19 10:12:32;;;;;;;;;;;;;;;22.28;81.70;101173.56;7286195;19;152148;-51
2021/09/19 10:15:00;;;;;;;;;;;;;;;22.28;81.64;101178.34;7293271;19;152688;-51
2021/09/19 10:17:28;;;;;;;;;;;;;;;22.27;81.63;101183.13;7289195;19;152156;-51
2021/09/19 10:19:55;;;;;;;;;;;;;;;22.28;81.71;101179.19;7288032;19;153396;-51
2021/09/19 10:22:39;;;;;;;;;;;;;;;22.29;81.81;101189.31;7286704;19;152763;-51
2021/09/19 10:26:01;;;;;;;;;;;;;;;22.26;81.05;101187.09;7281991;19;152203;-50
2021/09/19 10:28:38;;;;;;;;;;;;;;;22.28;81.61;101182.00;7287423;19;152187;-50
2021/09/19 10:31:08;;;;;;;;;;;;;;;22.23;80.98;101176.47;7286277;19;154024;-49
2021/09/19 10:33:37;;;;;;;;;;;;;;;22.28;80.95;101173.56;7285845;19;151909;-51
2021/09/19 10:36:11;;;;;;;;;;;;;;;22.26;81.53;101178.66;7287568;19;151970;-50
2021/09/19 10:38:43;;;;;;;;;;;;;;;22.27;81.25;101171.88;7292973;19;153118;-51
2021/09/19 10:41:17;;;;;;;;;;;;;;;22.28;81.88;101176.38;7288119;19;152679;-51
2021/09/19 10:43:51;;;;;;;;;;;;;;;22.27;81.06;101187.94;7284156;19;153797;-51
2021/09/19 10:46:35;;;;;;;;;;;;;;;22.26;81.20;101192.72;7287871;19;152024;-50
2021/09/19 10:49:09;;;;;;;;;;;;;;;22.25;81.28;101195.88;7288356;19;152402;-51
2021/09/19 10:51:55;;;;;;;;;;;;;;;22.23;80.57;101199.00;7284239;19;152920;-51
2021/09/19 10:54:41;;;;;;;;;;;;;;;22.26;80.55;101197.53;7287623;19;151874;-51
2021/09/19 10:57:18;;;;;;;;;;;;;;;22.25;80.89;101195.88;7286634;19;153893;-51
2021/09/19 11:00:03;;;;;;;;;;;;;;;22.23;80.90;101203.78;7285629;19;153304;-50
2021/09/19 11:02:30;;;;;;;;;;;;;;;22.20;80.74;101191.19;7290701;19;151801;-50
2021/09/19 11:05:16;;;;;;;;;;;;;;;22.22;80.52;101196.47;7282228;19;152459;-50
2021/09/19 11:07:43;;;;;;;;;;;;;;;22.24;80.82;101202.63;7286640;19;151978;-50
2021/09/19 11:10:12;;;;;;;;;;;;;;;22.20;80.61;101210.06;7285119;19;153532;-50
2021/09/19 11:12:46;;;;;;;;;;;;;;;22.20;80.33;101210.06;7284764;19;153288;-51
2021/09/19 11:15:22;;;;;;;;;;;;;;;22.17;79.80;101209.50;7284983;19;152755;-50
2021/09/19 11:17:51;;;;;;;;;;;;;;;22.18;80.38;101219.63;7285565;19;153370;-50
2021/09/19 11:20:20;;;;;;;;;;;;;;;22.21;80.36;101215.38;7283848;19;152660;-51
2021/09/19 11:22:48;;;;;;;;;;;;;;;22.18;80.66;101215.97;7287123;19;152055;-49
2021/09/19 11:25:16;;;;;;;;;;;;;;;22.16;80.71;101215.47;7293045;19;153570;-50
2021/09/19 11:27:45;;;;;;;;;;;;;;;22.16;80.67;101213.50;7287195;19;151995;-50
2021/09/19 11:30:13;;;;;;;;;;;;;;;22.16;80.52;101226.75;7283610;19;152697;-50
2021/09/19 11:32:39;;;;;;;;;;;;;;;22.16;80.91;101227.56;7280299;19;152326;-50
2021/09/19 11:35:08;;;;;;;;;;;;;;;22.17;80.98;101222.75;7277911;19;152896;-50
2021/09/19 11:37:35;;;;;;;;;;;;;;;22.15;80.95;101220.28;7282661;19;153573;-49
2021/09/19 11:40:07;;;;;;;;;;;;;;;22.16;80.89;101229.56;7280759;19;153276;-50
2021/09/19 11:42:33;;;;;;;;;;;;;;;22.15;80.56;101225.91;7282635;19;151968;-50
2021/09/19 11:45:00;;;;;;;;;;;;;;;22.17;80.54;101236.81;7280342;19;152253;-49
2021/09/19 11:47:27;;;;;;;;;;;;;;;22.16;80.79;101233.22;7288417;19;153710;-50
2021/09/19 11:49:56;;;;;;;;;;;;;;;22.14;80.51;101237.47;7281503;19;152314;-50
2021/09/19 11:52:23;;;;;;;;;;;;;;;22.14;81.02;101237.47;7280277;19;152285;-50
2021/09/19 11:54:50;;;;;;;;;;;;;;;22.16;80.73;101240.81;7283858;19;152133;-51
2021/09/19 11:57:17;;;;;;;;;;;;;;;22.14;80.91;101240.28;7279564;19;153192;-50
2021/09/19 11:59:45;;;;;;;;;;;;;;;22.16;81.08;101235.19;7281709;19;154036;-50
2021/09/19 12:02:13;;;;;;;;;;;;;;;22.14;81.39;101240.28;7282634;19;151978;-50
2021/09/19 12:04:41;;;;;;;;;;;;;;;22.11;82.14;101240.91;7277994;19;152963;-50
2021/09/19 12:07:10;;;;;;;;;;;;;;;22.10;82.36;101242.88;7285429;19;153716;-51
2021/09/19 12:09:50;;;;;;;;;;;;;;;22.11;82.33;101244.56;7282438;19;155070;-51
2021/09/19 12:12:18;;;;;;;;;;;;;;;22.10;82.81;101248.50;7281098;19;153637;-51
2021/09/19 12:14:46;;;;;;;;;;;;;;;22.10;82.61;101245.69;7279039;19;152123;-50
2021/09/19 12:17:14;;;;;;;;;;;;;;;22.09;82.73;101244.03;7282327;19;152651;-51
2021/09/19 12:19:45;;;;;;;;;;;;;;;22.08;83.06;101247.97;7277556;19;153983;-51
2021/09/19 12:22:16;;;;;;;;;;;;;;;22.08;83.43;101249.94;7280200;19;151738;-50
2021/09/19 12:24:44;;;;;;;;;;;;;;;22.09;83.72;101251.63;7281073;19;153450;-50
2021/09/19 12:27:15;;;;;;;;;;;;;;;22.08;84.10;101252.75;7279383;19;155894;-51
2021/09/19 12:29:45;;;;;;;;;;;;;;;22.06;83.90;101255.06;7289602;19;151859;-49
2021/09/19 12:32:12;;;;;;;;;;;;;;;22.08;83.88;101259.22;7276751;19;153266;-50
2021/09/19 12:34:38;;;;;;;;;;;;;;;22.08;84.02;101244.31;7277158;19;152188;-49
2021/09/19 12:37:07;;;;;;;;;;;;;;;22.09;84.46;101246.84;7280358;19;152381;-50
2021/09/19 12:39:33;;;;;;;;;;;;;;;22.09;84.63;101252.47;7279534;19;154032;-50